Etusivu
METAR-TAF:

METAR-TAF

Lentoasemat :

Halmstad, Ruotsi

Leveyspiiri: 56-41N, Pituuspiiri: 012-50E, korkeus merenpinnasta: 30 m

Tämänhetkinen sää

Tämä raportti tehtiin 30 minuuttia sitten, kello 02.50 UTC
Tuuli 13 kn pohjoisesta/koillisesta
Lämpötila 4°C
Kosteus 81%
Ilmanpaine 1009 hPa
Näkyvyys 10 km tai enemmän

METAR: ESMT 110250Z AUTO 02013KT 9999 FEW014/// OVC017/// 04/01 Q1009

Aika: 04:20 (03:20 UTC)

Sääennuste

Tämä raportti tehtiin 10 tuntia ja 8 minuuttia sitten, kello 17.12 UTC
Ennuste voimassa 10. päivästä klo 18 UTC - 10. päivään klo 22 UTC
Tuuli 15 kn pohjoisen/luoteesta
Näkyvyys 10 km tai enemmän
Hajonneita pilviä 3000 ft:n korkeudessa
Todennäköisyys 40%
10. päivästä klo 20 UTC - 10. päivään klo 22 UTC
Näkyvyys: 4000 m
Hajonneita pilviä 1200 ft:n korkeudessa
heikkoja vesikuuroja, lumisadetta

TAF: ESMT 101712Z 1018/1022 33015KT 9999 BKN030 PROB40 1020/1022 4000 -SHRASN BKN012

Säähavainnot ja -ennusteet yli 4000 lentoasemalta (METAR- ja TAF-raportit).

Käytössä olevat sääasemat on merkitty karttaan keltaisilla ja punaisilla pisteillä.

Aseta hiiri pisteen päälle nähdäksesi sääaseman nimen.

Klikkaa sitten nähdäksesi säähavainnot ja -ennusteet.

Kartan vaihtaminen: klikkaa mustalla rastilla varustettuja vihreitä pisteitä, niin voit zoomata sisään; viivalla varustettua vihreää pistettä, niin voit zoomata ulos tai vihreitä nuolia, niin pääset viereisille kartoille.


METAR-TAF: